Forester — DIUT — position and weather

sailwx.info

Track history (hours):
 
Tides and Currents Weather Stations Pressure Air Temp Water Temp Dewpoint Dewpoint Depression Visibility Wind Speed Wind Dir Waves Ship Positions

Forester

Last reported at 2017-Sep-24 16:57 UTC. Time now 2017-Sep-24 17:54 UTC.
Position N 35°59' W 005°50'.

Length 100 m; draft 7.4 m.

Type: Ship. MMSI: 211233870.

Date/timePositionNaut miles runAvg speedWind from/ knotsBaromVisibWave heightAir tempDewpointWater temp
2017-Sep-24 16:57N 35°59' W 005°50'4 9.5
2017-Sep-24 16:30N 35°58' W 005°44'511.0
2017-Sep-24 16:00N 35°58' W 005°38'510.4
2017-Sep-24 15:30N 35°59' W 005°31'510.0
2017-Sep-24 15:00N 35°60' W 005°25'4 7.6
2017-Sep-24 14:30N 35°57' W 005°21'4 8.4
2017-Sep-24 13:59N 35°54' W 005°19'0 0.3
2017-Sep-24 13:29N 35°54' W 005°18'0 0.0
2017-Sep-24 12:59N 35°54' W 005°18'0 0.0
2017-Sep-24 12:29N 35°54' W 005°18'0 0.0
2017-Sep-24 11:59N 35°54' W 005°18'0 0.0
2017-Sep-24 11:29N 35°54' W 005°18'0 0.0
2017-Sep-24 10:59N 35°54' W 005°18'0 0.0
2017-Sep-24 10:29N 35°54' W 005°18'0 0.0
2017-Sep-24 09:59N 35°54' W 005°18'0 0.0
2017-Sep-24 09:29N 35°54' W 005°18'0 0.0
2017-Sep-24 09:00N 35°54' W 005°18'1 2.9
2017-Sep-24 08:31N 35°55' W 005°18'1 1.6
2017-Sep-24 08:00N 35°56' W 005°18'  
2017-Sep-22 01:13N 39°54' E 001°14'311.9
2017-Sep-22 00:57N 39°57' E 001°16'511.8
2017-Sep-22 00:30N 40°02' E 001°19'611.7
2017-Sep-22 00:00N 40°07' E 001°23'612.0
2017-Sep-21 23:28N 40°12' E 001°27'612.0
2017-Sep-21 23:00N 40°18' E 001°30'611.5
2017-Sep-21 22:30N 40°23' E 001°34'611.5
2017-Sep-21 22:00N 40°28' E 001°38'611.5
2017-Sep-21 21:30N 40°33' E 001°41'1011.5
2017-Sep-21 20:38N 40°41' E 001°48'611.8
2017-Sep-21 20:07N 40°47' E 001°52'211.7
2017-Sep-21 19:56N 40°48' E 001°53'612.0
2017-Sep-21 19:25N 40°54' E 001°57'511.9
2017-Sep-21 19:00N 40°58' E 002°00'611.7
2017-Sep-21 18:30N 41°03' E 002°04'611.5
2017-Sep-21 18:00N 41°08' E 002°08'4 8.2
2017-Sep-21 17:30N 41°12' E 002°10'4 7.3
2017-Sep-21 16:55N 41°16' E 002°11'5 0.1
2017-Sep-19 18:36N 41°22' E 002°10'0 0.0
2017-Sep-19 18:30N 41°22' E 002°10'2 3.3
2017-Sep-19 18:00N 41°20' E 002°10'  
2017-Sep-17 12:34N 41°02' E 002°48'210.1
2017-Sep-17 12:24N 41°01' E 002°50'510.0
2017-Sep-17 11:53N 40°59' E 002°56'29210.6
2017-Sep-16 08:14N 38°38' E 008°30'3 9.4
2017-Sep-16 07:58N 38°37' E 008°33'3 7.1
2017-Sep-16 07:29N 38°35' E 008°36'5 9.9
2017-Sep-16 06:59N 38°33' E 008°42'1710.1
2017-Sep-16 05:15N 38°24' E 009°01'410.1
2017-Sep-16 04:49N 38°22' E 009°06'410.3
2017-Sep-16 04:23N 38°20' E 009°11'410.3
2017-Sep-16 04:00N 38°18' E 009°16'510.5
2017-Sep-16 03:30N 38°16' E 009°22'510.6
2017-Sep-16 03:00N 38°13' E 009°27'510.6
2017-Sep-16 02:30N 38°10' E 009°33'510.6
2017-Sep-16 02:00N 38°08' E 009°39'510.6
2017-Sep-16 01:29N 38°06' E 009°46'611.0
2017-Sep-16 00:59N 38°03' E 009°52'511.0
2017-Sep-16 00:30N 38°01' E 009°58'611.2
2017-Sep-16 00:00N 37°58' E 010°04'610.9
2017-Sep-15 23:30N 37°55' E 010°10'510.9
2017-Sep-15 23:00N 37°53' E 010°16'510.7
2017-Sep-15 22:30N 37°50' E 010°22'510.6
2017-Sep-15 22:00N 37°47' E 010°28'510.5
2017-Sep-15 21:30N 37°45' E 010°33'510.4
2017-Sep-15 21:00N 37°42' E 010°39'510.2
2017-Sep-15 20:30N 37°40' E 010°45'510.4
2017-Sep-15 20:00N 37°37' E 010°51'510.4
2017-Sep-15 19:30N 37°35' E 010°56'510.7
2017-Sep-15 19:00N 37°32' E 011°02'610.7
2017-Sep-15 18:29N 37°29' E 011°08'510.9
2017-Sep-15 18:00N 37°27' E 011°14'611.1
2017-Sep-15 17:30N 37°24' E 011°20'510.3
2017-Sep-15 17:00N 37°19' E 011°22'510.8
2017-Sep-15 16:30N 37°14' E 011°23'710.7
2017-Sep-15 15:52N 37°07' E 011°25'410.6
2017-Sep-15 15:29N 37°03' E 011°26'910.8
2017-Sep-15 14:40N 36°55' E 011°27'210.8
2017-Sep-15 14:30N 36°53' E 011°28'510.6
2017-Sep-15 14:00N 36°48' E 011°29'710.6
2017-Sep-15 13:20N 36°41' E 011°31'410.8
2017-Sep-15 13:00N 36°37' E 011°32'2010.9
2017-Sep-15 11:10N 36°18' E 011°36'411.0
2017-Sep-15 10:47N 36°13' E 011°37'311.1
2017-Sep-15 10:30N 36°10' E 011°38'611.2
2017-Sep-15 10:00N 36°05' E 011°40'4310.8
2017-Sep-15 06:02N 35°24' E 011°53'010.6
2017-Sep-15 06:00N 35°23' E 011°53'810.6
2017-Sep-15 05:14N 35°15' E 011°56'210.8
2017-Sep-15 05:00N 35°13' E 011°57'510.8
2017-Sep-15 04:30N 35°08' E 011°58'510.9
2017-Sep-15 04:00N 35°03' E 011°60'610.9
2017-Sep-15 03:30N 34°57' E 012°02'510.7
2017-Sep-15 03:00N 34°52' E 012°03'610.9
2017-Sep-15 02:30N 34°47' E 012°04'611.3
2017-Sep-15 02:00N 34°41' E 012°04'611.3
2017-Sep-15 01:30N 34°35' E 012°04'611.3
2017-Sep-15 01:00N 34°30' E 012°03'611.4
2017-Sep-15 00:30N 34°24' E 012°03'611.2
2017-Sep-15 00:00N 34°18' E 012°03'511.0
2017-Sep-14 23:30N 34°13' E 012°03'611.0
2017-Sep-14 23:00N 34°07' E 012°03'510.2
2017-Sep-14 22:30N 34°03' E 011°60'510.8
2017-Sep-14 22:00N 33°59' E 011°55'610.9
2017-Sep-14 21:30N 33°55' E 011°50'510.7
2017-Sep-14 21:00N 33°52' E 011°46'510.5
2017-Sep-14 20:30N 33°48' E 011°41'510.4
2017-Sep-14 20:00N 33°45' E 011°36'710.4
2017-Sep-14 19:20N 33°40' E 011°30'510.5
2017-Sep-14 18:52N 33°36' E 011°26'410.5
2017-Sep-14 18:30N 33°34' E 011°23'610.2
2017-Sep-14 17:58N 33°30' E 011°18'  
Track history (hours):
 
Tides and Currents Weather Stations Pressure Air Temp Water Temp Dewpoint Dewpoint Depression Visibility Wind Speed Wind Dir Waves Ship Positions

Forester

Last reported at 2017-Sep-24 16:57 UTC. Time now 2017-Sep-24 17:54 UTC.
Position N 35°59' W 005°50'.

Length 100 m; draft 7.4 m.

Type: Ship. MMSI: 211233870.

Date/timePositionNaut miles runAvg speedWind from/ knotsBaromVisibWave heightAir tempDewpointWater temp
2017-Sep-24 16:57N 35°59' W 005°50'4 9.5
2017-Sep-24 16:30N 35°58' W 005°44'511.0
2017-Sep-24 16:00N 35°58' W 005°38'510.4
2017-Sep-24 15:30N 35°59' W 005°31'510.0
2017-Sep-24 15:00N 35°60' W 005°25'4 7.6
2017-Sep-24 14:30N 35°57' W 005°21'4 8.4
2017-Sep-24 13:59N 35°54' W 005°19'0 0.3
2017-Sep-24 13:29N 35°54' W 005°18'0 0.0
2017-Sep-24 12:59N 35°54' W 005°18'0 0.0
2017-Sep-24 12:29N 35°54' W 005°18'0 0.0
2017-Sep-24 11:59N 35°54' W 005°18'0 0.0
2017-Sep-24 11:29N 35°54' W 005°18'0 0.0
2017-Sep-24 10:59N 35°54' W 005°18'0 0.0
2017-Sep-24 10:29N 35°54' W 005°18'0 0.0
2017-Sep-24 09:59N 35°54' W 005°18'0 0.0
2017-Sep-24 09:29N 35°54' W 005°18'0 0.0
2017-Sep-24 09:00N 35°54' W 005°18'1 2.9
2017-Sep-24 08:31N 35°55' W 005°18'1 1.6
2017-Sep-24 08:00N 35°56' W 005°18'  
2017-Sep-22 01:13N 39°54' E 001°14'311.9
2017-Sep-22 00:57N 39°57' E 001°16'511.8
2017-Sep-22 00:30N 40°02' E 001°19'611.7
2017-Sep-22 00:00N 40°07' E 001°23'612.0
2017-Sep-21 23:28N 40°12' E 001°27'612.0
2017-Sep-21 23:00N 40°18' E 001°30'611.5
2017-Sep-21 22:30N 40°23' E 001°34'611.5
2017-Sep-21 22:00N 40°28' E 001°38'611.5
2017-Sep-21 21:30N 40°33' E 001°41'1011.5
2017-Sep-21 20:38N 40°41' E 001°48'611.8
2017-Sep-21 20:07N 40°47' E 001°52'211.7
2017-Sep-21 19:56N 40°48' E 001°53'612.0
2017-Sep-21 19:25N 40°54' E 001°57'511.9
2017-Sep-21 19:00N 40°58' E 002°00'611.7
2017-Sep-21 18:30N 41°03' E 002°04'611.5
2017-Sep-21 18:00N 41°08' E 002°08'4 8.2
2017-Sep-21 17:30N 41°12' E 002°10'4 7.3
2017-Sep-21 16:55N 41°16' E 002°11'5 0.1
2017-Sep-19 18:36N 41°22' E 002°10'0 0.0
2017-Sep-19 18:30N 41°22' E 002°10'2 3.3
2017-Sep-19 18:00N 41°20' E 002°10'  
2017-Sep-17 12:34N 41°02' E 002°48'210.1
2017-Sep-17 12:24N 41°01' E 002°50'510.0
2017-Sep-17 11:53N 40°59' E 002°56'29210.6
2017-Sep-16 08:14N 38°38' E 008°30'3 9.4
2017-Sep-16 07:58N 38°37' E 008°33'3 7.1
2017-Sep-16 07:29N 38°35' E 008°36'5 9.9
2017-Sep-16 06:59N 38°33' E 008°42'1710.1
2017-Sep-16 05:15N 38°24' E 009°01'410.1
2017-Sep-16 04:49N 38°22' E 009°06'410.3
2017-Sep-16 04:23N 38°20' E 009°11'410.3
2017-Sep-16 04:00N 38°18' E 009°16'510.5
2017-Sep-16 03:30N 38°16' E 009°22'510.6
2017-Sep-16 03:00N 38°13' E 009°27'510.6
2017-Sep-16 02:30N 38°10' E 009°33'510.6
2017-Sep-16 02:00N 38°08' E 009°39'510.6
2017-Sep-16 01:29N 38°06' E 009°46'611.0
2017-Sep-16 00:59N 38°03' E 009°52'511.0
2017-Sep-16 00:30N 38°01' E 009°58'611.2
2017-Sep-16 00:00N 37°58' E 010°04'610.9
2017-Sep-15 23:30N 37°55' E 010°10'510.9
2017-Sep-15 23:00N 37°53' E 010°16'510.7
2017-Sep-15 22:30N 37°50' E 010°22'510.6
2017-Sep-15 22:00N 37°47' E 010°28'510.5
2017-Sep-15 21:30N 37°45' E 010°33'510.4
2017-Sep-15 21:00N 37°42' E 010°39'510.2
2017-Sep-15 20:30N 37°40' E 010°45'510.4
2017-Sep-15 20:00N 37°37' E 010°51'510.4
2017-Sep-15 19:30N 37°35' E 010°56'510.7
2017-Sep-15 19:00N 37°32' E 011°02'610.7
2017-Sep-15 18:29N 37°29' E 011°08'510.9
2017-Sep-15 18:00N 37°27' E 011°14'611.1
2017-Sep-15 17:30N 37°24' E 011°20'510.3
2017-Sep-15 17:00N 37°19' E 011°22'510.8
2017-Sep-15 16:30N 37°14' E 011°23'710.7
2017-Sep-15 15:52N 37°07' E 011°25'410.6
2017-Sep-15 15:29N 37°03' E 011°26'910.8
2017-Sep-15 14:40N 36°55' E 011°27'210.8
2017-Sep-15 14:30N 36°53' E 011°28'510.6
2017-Sep-15 14:00N 36°48' E 011°29'710.6
2017-Sep-15 13:20N 36°41' E 011°31'410.8
2017-Sep-15 13:00N 36°37' E 011°32'2010.9
2017-Sep-15 11:10N 36°18' E 011°36'411.0
2017-Sep-15 10:47N 36°13' E 011°37'311.1
2017-Sep-15 10:30N 36°10' E 011°38'611.2
2017-Sep-15 10:00N 36°05' E 011°40'4310.8
2017-Sep-15 06:02N 35°24' E 011°53'010.6
2017-Sep-15 06:00N 35°23' E 011°53'810.6
2017-Sep-15 05:14N 35°15' E 011°56'210.8
2017-Sep-15 05:00N 35°13' E 011°57'510.8
2017-Sep-15 04:30N 35°08' E 011°58'510.9
2017-Sep-15 04:00N 35°03' E 011°60'610.9
2017-Sep-15 03:30N 34°57' E 012°02'510.7
2017-Sep-15 03:00N 34°52' E 012°03'610.9
2017-Sep-15 02:30N 34°47' E 012°04'611.3
2017-Sep-15 02:00N 34°41' E 012°04'611.3
2017-Sep-15 01:30N 34°35' E 012°04'611.3
2017-Sep-15 01:00N 34°30' E 012°03'611.4
2017-Sep-15 00:30N 34°24' E 012°03'611.2
2017-Sep-15 00:00N 34°18' E 012°03'511.0
2017-Sep-14 23:30N 34°13' E 012°03'611.0
2017-Sep-14 23:00N 34°07' E 012°03'510.2
2017-Sep-14 22:30N 34°03' E 011°60'510.8
2017-Sep-14 22:00N 33°59' E 011°55'610.9
2017-Sep-14 21:30N 33°55' E 011°50'510.7
2017-Sep-14 21:00N 33°52' E 011°46'510.5
2017-Sep-14 20:30N 33°48' E 011°41'510.4
2017-Sep-14 20:00N 33°45' E 011°36'710.4
2017-Sep-14 19:20N 33°40' E 011°30'510.5
2017-Sep-14 18:52N 33°36' E 011°26'410.5
2017-Sep-14 18:30N 33°34' E 011°23'610.2
2017-Sep-14 17:58N 33°30' E 011°18'  

Dump ship's entire track history